aviador You're here:

RPMZ Decoded Metar

ZAMBOANGA in PHILIPPINES
Report Time2017-11-24 18:00:00
UTC Time2017-11-24 18:34:14
Flight Rules vfr VFR
WindCalm
Visibility9999 m
Phenomena:N/A
Clouds:Few TCU 017 Hf
Expected CloudBase > 800 ft AGL from Temp-Dew spread
CeilingNone
Temp25°C (ISA +10)
Dew Point23°C (89% RH)
QNH1009 hPa
Density Alt1,686 ft
Elevation20 ft
Report Wrong Elevation
Raw Report
RPMZ 241800Z 00000KT 9999 FEW017TCU 25/23 Q1009 RMK A2980 TCU
OHD=

Extra information for RPMZ:More info

Metar Taf Metar & Taf Last 4 Metars F.Rules Stats Wind Profile Meteogram Temp Stats Airport Information Weather charts Add Link Nearby VenuesMetar ALERT Operation Metar Decoded Social comments